Time;durP1;ratioP1;P1;durP2;ratioP2;P2;SDS_P1;SDS_P2;PMS_P1;PMS_P2;Temp;Humidity;BMP_temperature;BMP_pressure;BME280_temperature;BME280_humidity;BME280_pressure;Samples;Min_cycle;Max_cycle;Signal;HPM_P1;HPM_P2
2021/12/16 00:09:00;;;;;;;77.40;42.30;;;;;;;6.59;76.63;100327.33;212129;1329;140314;-60
2021/12/16 00:35:31;;;;;;;72.90;39.20;;;;;;;6.68;76.50;100331.86;212456;1328;141888;-63
2021/12/16 00:40:40;;;;;;;68.30;38.50;;;;;;;6.74;76.81;100328.85;212228;1323;139912;-61
2021/12/16 00:46:12;;;;;;;75.50;41.10;;;;;;;6.76;76.37;100323.89;212194;1329;139969;-61
2021/12/16 00:56:54;;;;;;;74.50;38.60;;;;;;;6.74;76.55;100317.59;212051;1325;139724;-62
2021/12/16 02:00:14;;;;;;;65.40;36.40;;;;;;;6.76;76.38;100263.55;212608;1325;140277;-61
2021/12/16 02:10:40;;;;;;;64.60;34.70;;;;;;;6.70;76.36;100258.45;212007;1327;139758;-59
2021/12/16 02:36:57;;;;;;;65.20;35.90;;;;;;;6.76;76.31;100253.16;212289;1327;139974;-63
2021/12/16 02:42:12;;;;;;;65.40;34.70;;;;;;;6.72;76.46;100250.09;212335;1328;139884;-64
2021/12/16 02:52:40;;;;;;;70.90;38.00;;;;;;;6.71;76.54;100251.88;212529;1329;140107;-62
2021/12/16 02:57:50;;;;;;;67.50;38.00;;;;;;;6.74;76.61;100257.80;212891;1324;139596;-61
2021/12/16 03:02:53;;;;;;;80.30;41.30;;;;;;;6.74;76.54;100254.82;212031;1331;140312;-59
2021/12/16 03:07:57;;;;;;;68.30;36.80;;;;;;;6.76;76.65;100249.29;212588;1322;140148;-61
2021/12/16 03:34:56;;;;;;;74.90;38.80;;;;;;;6.69;76.37;100250.89;210930;1337;140609;-60
2021/12/16 03:40:08;;;;;;;80.80;42.80;;;;;;;6.70;76.57;100254.93;211988;1328;139534;-63
2021/12/16 03:50:46;;;;;;;85.20;43.60;;;;;;;6.75;76.66;100249.48;211769;1331;140461;-60
2021/12/16 03:55:50;;;;;;;80.40;42.10;;;;;;;6.74;76.73;100252.52;212047;1327;139916;-61
2021/12/16 04:00:59;;;;;;;71.60;39.80;;;;;;;6.75;76.50;100255.84;212364;1323;139976;-62
2021/12/16 04:06:04;;;;;;;66.70;39.80;;;;;;;6.77;76.62;100255.59;212521;1326;140722;-60
2021/12/16 04:11:22;;;;;;;76.00;40.70;;;;;;;6.75;76.49;100256.89;212294;1324;139984;-60
2021/12/16 04:16:47;;;;;;;73.50;40.70;;;;;;;6.73;76.61;100260.45;212277;1329;139885;-59
2021/12/16 04:21:58;;;;;;;72.50;39.10;;;;;;;6.70;76.71;100267.45;212396;1328;139708;-64
2021/12/16 04:27:03;;;;;;;68.40;38.20;;;;;;;6.71;76.72;100262.30;213172;1321;141159;-61
2021/12/16 04:32:08;;;;;;;75.60;41.50;;;;;;;6.73;76.79;100263.31;212802;1326;140570;-62
2021/12/16 04:37:11;;;;;;;69.70;39.40;;;;;;;6.72;76.61;100268.61;212376;1328;139446;-64
2021/12/16 04:42:18;;;;;;;76.50;42.60;;;;;;;6.75;76.57;100266.59;212571;1328;139565;-65
2021/12/16 04:47:23;;;;;;;80.30;42.00;;;;;;;6.75;76.63;100263.41;212154;1331;139984;-60
2021/12/16 04:52:26;;;;;;;69.50;36.90;;;;;;;6.76;76.70;100273.10;212179;1322;140290;-63
2021/12/16 04:57:30;;;;;;;74.20;40.10;;;;;;;6.77;76.78;100271.29;212128;1328;139618;-61
2021/12/16 05:02:33;;;;;;;78.90;40.60;;;;;;;6.78;76.55;100278.34;213029;1324;139782;-61
2021/12/16 05:07:47;;;;;;;80.70;39.10;;;;;;;6.73;76.55;100282.34;212226;1329;139655;-62
2021/12/16 05:12:59;;;;;;;76.80;38.00;;;;;;;6.71;76.95;100277.10;211767;1336;140726;-61
2021/12/16 05:18:06;;;;;;;83.20;39.00;;;;;;;6.68;76.76;100280.17;213176;1322;140399;-63
2021/12/16 05:28:33;;;;;;;111.90;59.20;;;;;;;6.70;76.96;100287.73;212920;1326;139266;-65
2021/12/16 05:33:38;;;;;;;83.90;40.60;;;;;;;6.76;77.43;100292.66;211999;1329;139473;-60
2021/12/16 05:38:42;;;;;;;87.90;39.50;;;;;;;6.82;77.21;100292.67;212484;1326;139983;-63
2021/12/16 05:43:47;;;;;;;87.40;39.50;;;;;;;6.82;77.06;100290.91;211913;1328;140079;-63
2021/12/16 05:48:54;;;;;;;88.50;36.50;;;;;;;6.80;77.08;100293.63;212133;1329;139612;-64
2021/12/16 05:54:02;;;;;;;88.30;36.90;;;;;;;6.78;77.14;100301.09;212934;1328;139164;-62
2021/12/16 05:59:16;;;;;;;87.60;36.40;;;;;;;6.76;77.16;100297.44;212252;1329;142392;-61
2021/12/16 06:04:21;;;;;;;84.40;35.60;;;;;;;6.74;76.93;100306.13;212505;1325;140215;-61
2021/12/16 06:09:27;;;;;;;84.00;34.50;;;;;;;6.72;77.14;100308.30;212197;1328;140250;-66
2021/12/16 06:30:28;;;;;;;78.30;34.10;;;;;;;6.78;77.41;100313.59;212667;1323;139152;-60
2021/12/16 06:35:32;;;;;;;90.70;42.10;;;;;;;6.79;77.41;100314.64;212016;1329;139261;-60
2021/12/16 06:40:35;;;;;;;78.50;36.20;;;;;;;6.87;77.45;100313.91;212269;1325;140736;-63
2021/12/16 06:46:08;;;;;;;80.10;35.70;;;;;;;6.84;77.18;100317.33;212330;1323;139897;-60
2021/12/16 06:51:19;;;;;;;80.80;36.90;;;;;;;6.87;77.50;100323.59;212543;1322;139194;-65
2021/12/16 06:56:32;;;;;;;82.60;38.90;;;;;;;6.94;77.32;100328.73;212478;1324;140263;-61
2021/12/16 07:06:40;;;;;;;85.40;39.00;;;;;;;6.95;77.42;100332.56;211880;1333;140376;-66
2021/12/16 07:11:48;;;;;;;86.00;41.90;;;;;;;6.99;77.17;100332.11;211900;1322;140528;-64
2021/12/16 07:16:57;;;;;;;82.90;40.40;;;;;;;7.03;77.17;100332.02;212066;1331;140324;-66
2021/12/16 07:22:00;;;;;;;75.90;39.30;;;;;;;7.05;77.01;100322.04;211961;1332;139375;-60
2021/12/16 07:27:05;;;;;;;79.10;38.90;;;;;;;7.07;77.05;100319.02;212240;1328;140149;-62
2021/12/16 07:32:08;;;;;;;73.60;38.70;;;;;;;7.08;77.01;100319.86;212253;1329;139989;-64
2021/12/16 07:37:11;;;;;;;73.10;41.00;;;;;;;7.10;76.91;100311.35;212960;1326;141697;-64
2021/12/16 07:42:23;;;;;;;76.30;40.30;;;;;;;7.13;76.97;100313.20;213697;1322;140065;-63
2021/12/16 07:47:26;;;;;;;71.90;39.00;;;;;;;7.15;76.85;100307.84;212236;1328;142792;-60
2021/12/16 07:52:33;;;;;;;72.50;39.90;;;;;;;7.14;76.74;100309.81;212082;1330;139931;-61
2021/12/16 07:57:36;;;;;;;73.90;39.30;;;;;;;7.13;76.64;100315.48;212014;1328;142644;-65
2021/12/16 08:02:40;;;;;;;67.50;40.60;;;;;;;7.16;76.64;100318.23;212808;1322;139679;-61
2021/12/16 08:07:43;;;;;;;68.80;40.50;;;;;;;7.19;76.81;100317.27;212685;1324;139525;-70
2021/12/16 08:12:46;;;;;;;65.00;38.50;;;;;;;7.19;76.71;100323.60;212460;1322;140011;-60
2021/12/16 08:17:50;;;;;;;70.80;39.50;;;;;;;7.19;76.72;100322.37;212242;1326;139701;-60
2021/12/16 08:22:56;;;;;;;63.50;38.50;;;;;;;7.20;76.62;100320.25;211874;1325;140418;-61
2021/12/16 08:28:03;;;;;;;65.30;38.10;;;;;;;7.21;76.51;100324.09;212114;1329;139654;-61
2021/12/16 08:33:09;;;;;;;60.60;37.30;;;;;;;7.20;76.44;100328.73;212233;1319;140306;-63
2021/12/16 08:38:15;;;;;;;60.20;38.70;;;;;;;7.17;76.41;100329.85;212357;1322;139379;-61
2021/12/16 08:43:19;;;;;;;;;;;;;;;7.17;76.39;100326.15;213121;1322;139648;-62
2021/12/16 08:48:26;;;;;;;57.20;35.30;;;;;;;7.20;76.53;100321.48;212382;1322;126199;-60
2021/12/16 08:53:29;;;;;;;57.80;36.00;;;;;;;7.23;76.26;100325.81;212328;1325;139521;-63
2021/12/16 08:58:33;;;;;;;61.50;36.40;;;;;;;7.26;76.35;100324.14;211940;1332;140179;-60
2021/12/16 09:03:36;;;;;;;57.80;35.20;;;;;;;7.27;76.30;100317.74;211945;1325;139513;-63
2021/12/16 09:08:40;;;;;;;56.10;33.90;;;;;;;7.26;75.96;100314.80;212144;1329;139414;-66
2021/12/16 09:13:43;;;;;;;57.50;34.40;;;;;;;7.24;75.99;100308.83;212039;1326;141021;-60
2021/12/16 09:18:46;;;;;;;61.60;37.60;;;;;;;7.36;76.56;100302.84;212206;1325;141418;-61
2021/12/16 09:23:51;;;;;;;57.70;33.90;;;;;;;7.49;76.38;100298.77;212819;1325;140369;-59
2021/12/16 09:28:56;;;;;;;61.80;35.60;;;;;;;7.48;75.82;100301.45;211767;1331;140509;-66
2021/12/16 09:34:05;;;;;;;61.80;34.80;;;;;;;7.43;76.04;100300.17;212151;1328;139782;-60
2021/12/16 09:39:12;;;;;;;60.30;34.20;;;;;;;7.43;75.91;100296.66;213146;1322;139513;-61
2021/12/16 09:44:17;;;;;;;59.70;33.50;;;;;;;7.43;75.75;100291.36;212076;1325;140372;-63
2021/12/16 09:49:21;;;;;;;63.80;36.10;;;;;;;7.45;75.86;100288.64;212120;1322;139732;-62
2021/12/16 09:54:28;;;;;;;59.80;35.00;;;;;;;7.48;75.98;100288.58;212629;1322;139683;-66
2021/12/16 09:59:35;;;;;;;56.10;34.60;;;;;;;7.52;76.05;100284.02;212467;1323;138941;-62
2021/12/16 10:04:39;;;;;;;59.20;33.80;;;;;;;7.52;75.85;100271.11;212749;1323;139657;-61
2021/12/16 10:09:45;;;;;;;75.10;40.30;;;;;;;7.54;75.84;100260.65;211990;1331;140054;-63
2021/12/16 10:20:15;;;;;;;58.60;33.50;;;;;;;7.74;76.04;100251.04;212289;1322;139349;-60
2021/12/16 10:25:32;;;;;;;56.10;32.70;;;;;;;7.77;75.88;100249.36;212761;1322;140725;-62
2021/12/16 10:30:38;;;;;;;51.00;31.30;;;;;;;7.81;75.74;100253.46;212548;1322;140470;-62
2021/12/16 10:35:47;;;;;;;59.80;32.70;;;;;;;7.80;75.59;100250.65;213002;1325;139024;-60
2021/12/16 10:40:54;;;;;;;52.40;30.80;;;;;;;7.82;75.50;100250.07;211895;1326;139895;-62
2021/12/16 10:46:09;;;;;;;51.70;31.80;;;;;;;7.87;75.47;100257.36;212509;1322;140753;-62
2021/12/16 10:51:18;;;;;;;;;;;;;;;7.92;75.54;100260.02;212163;1326;139684;-63
2021/12/16 10:56:33;;;;;;;50.60;31.90;;;;;;;7.96;75.50;100257.40;212452;1322;127442;-61
2021/12/16 11:01:38;;;;;;;49.40;31.80;;;;;;;8.02;75.57;100250.16;212136;1329;139945;-62
2021/12/16 11:06:44;;;;;;;;;;;;;;;8.05;75.37;100244.75;212454;1325;139323;-62
2021/12/16 11:11:47;;;;;;;51.50;29.50;;;;;;;8.01;75.07;100249.14;212256;1328;125653;-61
2021/12/16 11:16:59;;;;;;;49.60;31.30;;;;;;;8.00;75.10;100245.79;211828;1326;140516;-63
2021/12/16 11:22:05;;;;;;;44.70;28.90;;;;;;;8.05;75.19;100241.41;212542;1324;139465;-63
2021/12/16 11:27:29;;;;;;;52.40;32.60;;;;;;;8.07;75.22;100237.45;213048;1322;139154;-61
2021/12/16 11:32:37;;;;;;;50.60;30.70;;;;;;;8.06;75.18;100233.41;212213;1325;139187;-62
2021/12/16 11:37:47;;;;;;;41.80;26.50;;;;;;;8.09;75.47;100226.44;212369;1322;139556;-61
2021/12/16 11:43:05;;;;;;;38.10;23.80;;;;;;;8.09;75.22;100220.95;211852;1325;140268;-62
2021/12/16 11:48:08;;;;;;;41.80;26.40;;;;;;;8.10;75.14;100213.14;212760;1322;139971;-61
2021/12/16 11:53:11;;;;;;;38.20;24.90;;;;;;;8.15;75.27;100224.46;211844;1332;139502;-61
2021/12/16 11:58:14;;;;;;;38.20;24.10;;;;;;;8.14;75.10;100228.02;212760;1326;139447;-62
2021/12/16 12:03:17;;;;;;;197.80;140.80;;;;;;;8.10;75.26;100228.86;212032;1328;139686;-62
2021/12/16 12:08:24;;;;;;;34.50;22.10;;;;;;;8.17;75.48;100231.11;212704;1322;141823;-60
2021/12/16 12:13:39;;;;;;;32.50;21.60;;;;;;;8.19;75.23;100221.15;212204;1328;140438;-61
2021/12/16 12:18:45;;;;;;;40.00;23.80;;;;;;;8.17;75.26;100219.98;212220;1322;139826;-62
2021/12/16 12:24:03;;;;;;;35.60;22.60;;;;;;;8.16;75.15;100221.42;212105;1329;139658;-60
2021/12/16 12:29:11;;;;;;;33.70;21.10;;;;;;;8.14;75.13;100218.13;212371;1322;140806;-61
2021/12/16 12:34:16;;;;;;;32.50;20.50;;;;;;;8.17;75.16;100222.80;212215;1322;140891;-62
2021/12/16 12:39:21;;;;;;;34.40;22.30;;;;;;;8.18;74.92;100223.98;211911;1328;139804;-62
2021/12/16 12:44:25;;;;;;;32.10;21.90;;;;;;;8.18;75.12;100222.59;212019;1325;139060;-62
2021/12/16 12:49:29;;;;;;;30.00;21.40;;;;;;;8.17;75.04;100229.52;212614;1323;139886;-60
2021/12/16 12:54:33;;;;;;;33.10;20.40;;;;;;;8.13;75.04;100229.29;212132;1328;140102;-61
2021/12/16 12:59:38;;;;;;;35.70;22.00;;;;;;;8.14;75.12;100217.42;212055;1328;140950;-62
2021/12/16 13:04:55;;;;;;;29.80;19.80;;;;;;;8.20;75.08;100201.30;212109;1324;139814;-62
2021/12/16 13:10:04;;;;;;;31.90;21.50;;;;;;;8.17;74.97;100212.54;212440;1321;140279;-62
2021/12/16 13:15:27;;;;;;;30.90;21.50;;;;;;;8.18;75.02;100209.16;212415;1322;139751;-63
2021/12/16 13:31:39;;;;;;;34.30;23.00;;;;;;;8.24;75.32;100220.95;212209;1322;140495;-63
2021/12/16 13:36:47;;;;;;;31.50;22.00;;;;;;;8.21;74.94;100220.37;212204;1328;139366;-62
2021/12/16 13:42:00;;;;;;;33.40;22.70;;;;;;;8.17;74.87;100224.55;212374;1323;140465;-61
2021/12/16 13:47:37;;;;;;;28.50;19.90;;;;;;;8.15;74.91;100211.90;213256;1323;140226;-63
2021/12/16 14:03:42;;;;;;;32.80;21.60;;;;;;;8.15;74.91;100221.82;212292;1327;139263;-62
2021/12/16 14:08:51;;;;;;;27.90;19.70;;;;;;;8.09;75.04;100172.86;212103;1322;139511;-61
2021/12/16 14:24:55;;;;;;;31.10;21.50;;;;;;;7.97;75.14;100215.33;212669;1322;139843;-61
2021/12/16 14:37:10;;;;;;;30.10;20.10;;;;;;;8.02;75.45;100222.58;212426;1328;140096;-61
2021/12/16 14:48:03;;;;;;;28.90;20.60;;;;;;;7.91;75.37;100218.36;212275;1328;140735;-60
2021/12/16 14:53:19;;;;;;;27.50;20.10;;;;;;;7.89;75.43;100221.77;212308;1322;140175;-62
2021/12/16 14:58:24;;;;;;;29.00;20.00;;;;;;;7.87;75.48;100234.36;212037;1326;140274;-60
2021/12/16 15:03:36;;;;;;;27.80;19.60;;;;;;;7.91;75.50;100239.04;212528;1327;141358;-62
2021/12/16 15:08:54;;;;;;;26.60;19.20;;;;;;;7.95;75.64;100242.27;212463;1323;139783;-62
2021/12/16 15:14:02;;;;;;;28.60;19.80;;;;;;;7.95;75.63;100229.87;212305;1326;141338;-62
2021/12/16 15:45:57;;;;;;;26.20;19.80;;;;;;;7.96;75.95;100235.31;211875;1331;139255;-63
2021/12/16 15:51:05;;;;;;;53.60;36.40;;;;;;;8.01;76.10;100241.88;212459;1322;140998;-65
2021/12/16 15:56:28;;;;;;;24.20;17.20;;;;;;;8.11;76.13;100249.50;212170;1327;140646;-60
2021/12/16 16:01:43;;;;;;;24.70;17.30;;;;;;;8.17;75.89;100249.48;212172;1326;139404;-63
2021/12/16 16:06:49;;;;;;;75.10;54.30;;;;;;;8.18;75.81;100258.29;211887;1329;139345;-63
2021/12/16 16:11:54;;;;;;;26.00;17.90;;;;;;;8.27;76.17;100262.42;212174;1326;141495;-62
2021/12/16 16:17:00;;;;;;;21.80;15.20;;;;;;;8.25;75.73;100270.27;211946;1322;139214;-61
2021/12/16 16:22:04;;;;;;;;;;;;;;;8.21;75.61;100287.17;212337;1328;140334;-62
2021/12/16 16:27:10;;;;;;;19.50;13.50;;;;;;;8.19;75.74;100297.86;212284;1322;126112;-61
2021/12/16 16:32:14;;;;;;;19.00;13.70;;;;;;;8.15;75.70;100306.30;213203;1324;141646;-60
2021/12/16 16:37:28;;;;;;;21.80;14.10;;;;;;;8.13;75.66;100307.06;212948;1326;140396;-60
2021/12/16 16:42:35;;;;;;;18.70;14.10;;;;;;;8.11;75.77;100315.80;212438;1326;142101;-62
2021/12/16 16:47:50;;;;;;;18.90;12.60;;;;;;;8.12;75.92;100312.58;212377;1325;142360;-62
2021/12/16 16:52:55;;;;;;;23.20;16.00;;;;;;;8.17;75.82;100319.16;212580;1323;140222;-63
2021/12/16 16:58:02;;;;;;;16.10;11.50;;;;;;;8.20;75.81;100316.73;212477;1323;140147;-61
2021/12/16 17:03:12;;;;;;;363.90;249.80;;;;;;;8.19;75.68;100306.19;213179;1326;138876;-60
2021/12/16 17:08:24;;;;;;;20.70;13.40;;;;;;;8.30;76.26;100311.29;212296;1321;141283;-62
2021/12/16 17:18:58;;;;;;;14.80;10.40;;;;;;;8.32;75.47;100311.06;212121;1322;139752;-61
2021/12/16 17:24:04;;;;;;;12.60;8.90;;;;;;;8.33;75.44;100312.78;212512;1322;139638;-64
2021/12/16 17:29:32;;;;;;;13.80;8.60;;;;;;;8.34;75.56;100318.60;212540;1320;139952;-62
2021/12/16 17:34:43;;;;;;;15.40;9.50;;;;;;;8.28;75.47;100316.83;212086;1328;138858;-60
2021/12/16 17:40:00;;;;;;;157.30;109.70;;;;;;;8.26;75.26;100320.79;212334;1323;139768;-63
2021/12/16 17:45:24;;;;;;;14.70;9.20;;;;;;;8.31;75.69;100331.25;212897;1322;139965;-63
2021/12/16 17:50:40;;;;;;;13.60;8.50;;;;;;;8.27;75.28;100332.24;212503;1322;139435;-62
2021/12/16 17:55:57;;;;;;;13.60;8.00;;;;;;;8.21;75.20;100344.11;212530;1329;139260;-59
2021/12/16 18:01:06;;;;;;;12.50;7.10;;;;;;;8.17;75.32;100338.77;213174;1325;139996;-62
2021/12/16 18:06:14;;;;;;;10.10;6.60;;;;;;;8.14;75.32;100346.27;213038;1326;139943;-61
2021/12/16 18:11:23;;;;;;;11.70;7.30;;;;;;;8.17;75.29;100358.92;212063;1328;139572;-61
2021/12/16 18:16:45;;;;;;;57.50;41.80;;;;;;;8.22;75.76;100361.21;212426;1326;139692;-62
2021/12/16 18:21:50;;;;;;;11.40;8.50;;;;;;;8.42;75.97;100361.33;212323;1328;140097;-60
2021/12/16 18:26:53;;;;;;;12.20;7.80;;;;;;;8.42;75.24;100379.38;212001;1329;140118;-62
2021/12/16 18:31:56;;;;;;;9.90;5.40;;;;;;;8.38;74.99;100384.09;211662;1335;139153;-60
2021/12/16 18:37:07;;;;;;;;;;;;;;;8.34;74.48;100387.20;212805;1328;140492;-60
2021/12/16 18:42:18;;;;;;;6.70;4.30;;;;;;;8.28;74.35;100376.96;212584;1324;126394;-62
2021/12/16 18:47:41;;;;;;;7.50;4.30;;;;;;;8.29;74.19;100382.05;212771;1328;138780;-61
2021/12/16 18:54:28;;;;;;;10.40;5.30;;;;;;;8.27;73.82;100368.68;213048;1322;140258;-61
2021/12/16 18:58:09;;;;;;;7.70;4.70;;;;;;;8.25;73.77;100362.73;212543;1325;139242;-61
2021/12/16 19:03:13;;;;;;;6.00;4.30;;;;;;;8.21;73.56;100351.19;213304;1322;138912;-61
2021/12/16 19:08:16;;;;;;;7.40;4.50;;;;;;;8.14;73.08;100338.51;212999;1326;140241;-61
2021/12/16 19:13:31;;;;;;;7.70;4.20;;;;;;;8.08;73.06;100351.05;212621;1325;262329;-63
2021/12/16 19:18:37;;;;;;;5.30;4.20;;;;;;;8.09;72.89;100371.01;211983;1328;141403;-61
2021/12/16 19:24:00;;;;;;;9.40;4.10;;;;;;;8.03;72.40;100390.27;211875;1321;139008;-61
2021/12/16 19:29:05;;;;;;;7.50;4.20;;;;;;;7.93;72.14;100412.47;212364;1328;139016;-63
2021/12/16 19:34:11;;;;;;;7.10;4.00;;;;;;;7.87;72.05;100420.61;212784;1328;140561;-61
2021/12/16 19:39:15;;;;;;;6.90;4.60;;;;;;;7.88;72.00;100421.48;213039;1325;140436;-63
2021/12/16 19:44:25;;;;;;;7.30;4.50;;;;;;;7.84;71.76;100430.94;211920;1328;139276;-64
2021/12/16 19:49:28;;;;;;;8.90;4.90;;;;;;;7.79;71.65;100434.08;212201;1323;140603;-61
2021/12/16 19:54:33;;;;;;;187.80;112.00;;;;;;;7.76;71.59;100435.94;213319;1322;139760;-63
2021/12/16 19:59:37;;;;;;;10.10;5.50;;;;;;;7.85;71.84;100440.83;212129;1329;139342;-62
2021/12/16 20:04:51;;;;;;;9.00;6.00;;;;;;;7.80;71.17;100443.95;211976;1337;139645;-59
2021/12/16 20:09:54;;;;;;;9.30;5.60;;;;;;;7.69;70.70;100442.16;212127;1327;138789;-62
2021/12/16 20:15:03;;;;;;;8.60;5.40;;;;;;;7.59;70.50;100436.24;213210;1324;140415;-60
2021/12/16 20:20:23;;;;;;;9.60;6.20;;;;;;;7.52;70.31;100427.42;212457;1325;139977;-65
2021/12/16 20:25:34;;;;;;;9.40;5.50;;;;;;;7.51;70.46;100423.73;212148;1328;139264;-60
2021/12/16 20:30:43;;;;;;;10.70;6.40;;;;;;;7.49;70.09;100422.91;212543;1329;139320;-61
2021/12/16 20:35:56;;;;;;;9.90;5.20;;;;;;;7.48;70.12;100416.59;212500;1328;138949;-61
2021/12/16 20:41:06;;;;;;;10.00;5.60;;;;;;;7.44;69.76;100413.14;212798;1327;139396;-60
2021/12/16 20:46:13;;;;;;;12.00;6.80;;;;;;;7.40;69.65;100429.52;213216;1325;139363;-59
2021/12/16 20:51:27;;;;;;;8.70;5.50;;;;;;;7.35;69.81;100420.09;212593;1321;139310;-62
2021/12/16 20:56:32;;;;;;;10.10;6.20;;;;;;;7.35;69.94;100417.79;212656;1321;209074;-60
2021/12/16 21:01:40;;;;;;;13.40;7.50;;;;;;;7.30;69.76;100411.58;212606;1327;139372;-59
2021/12/16 21:06:45;;;;;;;17.90;7.60;;;;;;;7.25;69.89;100398.14;212577;1323;139262;-60
2021/12/16 21:11:50;;;;;;;14.00;7.10;;;;;;;7.22;69.83;100397.13;212263;1327;140560;-60
2021/12/16 21:16:54;;;;;;;13.20;7.30;;;;;;;7.22;69.86;100400.15;212073;1329;139394;-60
2021/12/16 21:21:58;;;;;;;14.80;7.90;;;;;;;7.22;69.90;100405.09;212913;1320;139770;-63
2021/12/16 21:27:02;;;;;;;13.00;7.30;;;;;;;7.18;69.74;100396.19;212652;1322;140043;-61
2021/12/16 21:32:05;;;;;;;236.90;134.50;;;;;;;7.11;69.69;100396.73;212820;1323;139142;-62
2021/12/16 21:37:13;;;;;;;18.40;10.50;;;;;;;7.16;69.98;100403.30;212585;1326;139524;-61
2021/12/16 21:42:24;;;;;;;15.20;6.30;;;;;;;7.14;69.72;100405.13;212527;1329;140094;-60
2021/12/16 21:47:30;;;;;;;10.80;5.80;;;;;;;7.11;69.62;100393.90;213068;1322;140536;-64
2021/12/16 21:52:33;;;;;;;;;;;;;;;7.06;69.38;100387.84;212398;1327;139624;-60
2021/12/16 21:57:38;;;;;;;11.20;6.00;;;;;;;7.00;69.36;100388.34;213037;1321;125681;-62
2021/12/16 22:02:42;;;;;;;14.90;6.60;;;;;;;6.93;69.23;100377.27;212213;1329;139552;-66
2021/12/16 22:07:46;;;;;;;12.80;7.20;;;;;;;6.92;69.39;100376.23;212352;1330;139599;-61
2021/12/16 22:12:49;;;;;;;14.10;7.50;;;;;;;6.91;69.62;100367.07;212391;1328;139170;-62
2021/12/16 22:17:55;;;;;;;15.30;8.90;;;;;;;6.93;69.46;100356.09;213097;1322;140457;-60
2021/12/16 22:23:00;;;;;;;15.10;8.30;;;;;;;6.90;69.42;100353.52;213043;1323;139038;-62
2021/12/16 22:28:04;;;;;;;20.20;9.70;;;;;;;6.84;69.57;100346.08;211946;1327;139941;-65
2021/12/16 22:33:09;;;;;;;17.10;9.40;;;;;;;6.81;69.57;100334.17;212527;1328;139922;-61
2021/12/16 22:38:14;;;;;;;17.50;9.20;;;;;;;6.79;69.44;100336.34;212468;1326;139383;-64
2021/12/16 22:43:20;;;;;;;16.20;8.80;;;;;;;6.77;69.58;100330.02;212317;1328;141061;-62
2021/12/16 22:48:36;;;;;;;17.10;8.80;;;;;;;6.78;69.62;100332.46;212216;1322;140141;-62
2021/12/16 22:53:41;;;;;;;14.80;8.70;;;;;;;6.81;69.86;100343.35;213075;1322;139081;-63
2021/12/16 22:58:45;;;;;;;18.00;7.90;;;;;;;6.82;69.54;100348.78;212541;1326;140371;-63
2021/12/16 23:03:53;;;;;;;15.20;7.60;;;;;;;6.82;69.46;100353.53;212890;1328;139091;-60
2021/12/16 23:08:57;;;;;;;16.50;7.40;;;;;;;6.86;69.43;100354.49;213204;1323;138749;-62
2021/12/16 23:14:01;;;;;;;15.40;7.60;;;;;;;6.88;69.05;100354.79;211962;1324;140067;-66
2021/12/16 23:24:49;;;;;;;17.40;8.80;;;;;;;6.93;69.09;100341.98;212817;1328;141003;-64
2021/12/16 23:29:52;;;;;;;15.00;8.20;;;;;;;6.92;69.35;100337.40;213143;1326;139194;-68
2021/12/16 23:34:55;;;;;;;16.10;9.20;;;;;;;6.93;69.23;100331.92;212357;1326;138943;-62
2021/12/16 23:39:59;;;;;;;17.50;8.50;;;;;;;6.91;69.17;100330.03;212373;1322;139472;-64
2021/12/16 23:55:54;;;;;;;15.90;7.80;;;;;;;6.80;69.26;100317.07;212869;1322;140210;-63
